createdAt,value
2022-08-17T00:00:16.000Z,13.64
2022-08-17T00:01:20.000Z,13.67
2022-08-17T00:02:14.000Z,13.67
2022-08-17T00:03:20.000Z,13.68
2022-08-17T00:04:12.000Z,13.71
2022-08-17T00:05:13.000Z,13.62
2022-08-17T00:06:20.000Z,13.59
2022-08-17T00:07:12.000Z,13.66
2022-08-17T00:08:15.000Z,13.64
2022-08-17T00:09:13.000Z,13.63
2022-08-17T00:10:12.000Z,13.59
2022-08-17T00:11:21.000Z,13.61
2022-08-17T00:12:13.000Z,13.62
2022-08-17T00:13:17.000Z,13.65
2022-08-17T00:14:15.000Z,13.64
2022-08-17T00:15:13.000Z,13.56
2022-08-17T00:16:22.000Z,13.62
2022-08-17T00:17:12.000Z,13.62
2022-08-17T00:18:13.000Z,13.62
2022-08-17T00:18:13.000Z,13.62
2022-08-17T00:19:15.000Z,13.61
2022-08-17T00:20:14.000Z,13.60
2022-08-17T00:21:14.000Z,13.61
2022-08-17T00:22:13.000Z,13.58
2022-08-17T00:23:15.000Z,13.63
2022-08-17T00:24:13.000Z,13.57
2022-08-17T00:25:17.000Z,13.58
2022-08-17T00:26:13.000Z,13.66
2022-08-17T00:27:13.000Z,13.60
2022-08-17T00:28:15.000Z,13.68
2022-08-17T00:29:13.000Z,13.59
2022-08-17T00:30:13.000Z,13.63
2022-08-17T00:31:13.000Z,13.67
2022-08-17T00:32:13.000Z,13.66
2022-08-17T00:32:13.000Z,13.66
2022-08-17T00:33:23.000Z,13.62
2022-08-17T00:34:13.000Z,13.60
2022-08-17T00:35:16.000Z,13.59
2022-08-17T00:36:13.000Z,13.58
2022-08-17T00:37:13.000Z,13.59
2022-08-17T00:38:14.000Z,13.68
2022-08-17T00:39:13.000Z,13.62
2022-08-17T00:40:13.000Z,13.67
2022-08-17T00:41:16.000Z,13.65
2022-08-17T00:42:16.000Z,13.68
2022-08-17T00:43:29.000Z,13.62
2022-08-17T00:44:14.000Z,13.61
2022-08-17T00:45:16.000Z,13.59
2022-08-17T00:46:19.000Z,13.58
2022-08-17T00:47:13.000Z,13.65
2022-08-17T00:48:13.000Z,13.60
2022-08-17T00:49:15.000Z,13.56
2022-08-17T00:50:15.000Z,13.57
2022-08-17T00:51:22.000Z,13.59
2022-08-17T00:52:17.000Z,13.56
2022-08-17T00:53:12.000Z,13.54
2022-08-17T00:54:29.000Z,13.53
2022-08-17T00:55:13.000Z,13.50
2022-08-17T00:56:17.000Z,13.50
2022-08-17T00:57:19.000Z,13.52
2022-08-17T00:58:13.000Z,13.48
2022-08-17T00:59:19.000Z,13.49
2022-08-17T01:00:17.000Z,13.46
2022-08-17T01:01:13.000Z,13.46
2022-08-17T01:02:14.000Z,13.52
2022-08-17T01:03:20.000Z,13.47
2022-08-17T01:04:15.000Z,13.56
2022-08-17T01:05:18.000Z,13.56
2022-08-17T01:06:13.000Z,13.49
2022-08-17T01:07:13.000Z,13.48
2022-08-17T01:08:16.000Z,13.49
2022-08-17T01:09:14.000Z,13.51
2022-08-17T01:10:14.000Z,13.55
2022-08-17T01:10:14.000Z,13.55
2022-08-17T01:11:12.000Z,13.53
2022-08-17T01:12:12.000Z,13.50
2022-08-17T01:13:14.000Z,13.69
2022-08-17T01:14:12.000Z,13.66
2022-08-17T01:15:13.000Z,13.62
2022-08-17T01:16:21.000Z,13.63
2022-08-17T01:17:12.000Z,13.68
2022-08-17T01:18:13.000Z,13.62
2022-08-17T01:19:17.000Z,13.54
2022-08-17T01:20:12.000Z,13.68
2022-08-17T01:21:22.000Z,13.64
2022-08-17T01:22:19.000Z,13.62
2022-08-17T01:23:13.000Z,13.63
2022-08-17T01:24:13.000Z,13.72
2022-08-17T01:25:13.000Z,13.63
2022-08-17T01:26:12.000Z,13.63
2022-08-17T01:27:15.000Z,13.64
2022-08-17T01:28:13.000Z,13.53
2022-08-17T01:29:13.000Z,13.57
2022-08-17T01:30:14.000Z,13.70
2022-08-17T01:31:13.000Z,13.62
2022-08-17T01:32:13.000Z,13.61
2022-08-17T01:33:12.000Z,13.56
2022-08-17T01:34:16.000Z,13.40
2022-08-17T01:35:13.000Z,13.40
2022-08-17T01:36:12.000Z,13.40
2022-08-17T01:37:13.000Z,13.38
2022-08-17T01:38:12.000Z,13.27
2022-08-17T01:39:23.000Z,13.26
2022-08-17T01:40:23.000Z,13.25
2022-08-17T01:41:14.000Z,13.23
2022-08-17T01:42:31.000Z,13.28
2022-08-17T01:43:18.000Z,13.28
2022-08-17T01:44:14.000Z,13.25
2022-08-17T01:45:19.000Z,13.21
2022-08-17T01:46:21.000Z,13.26
2022-08-17T01:47:13.000Z,13.23
2022-08-17T01:48:13.000Z,13.27
2022-08-17T01:49:12.000Z,13.17
2022-08-17T01:50:19.000Z,13.20
2022-08-17T01:51:14.000Z,13.26
2022-08-17T01:52:13.000Z,13.27
2022-08-17T01:53:19.000Z,13.23
2022-08-17T01:54:15.000Z,13.22
2022-08-17T01:55:16.000Z,13.20
2022-08-17T01:56:17.000Z,13.24
2022-08-17T01:57:13.000Z,13.21
2022-08-17T01:58:13.000Z,13.22
2022-08-17T01:59:14.000Z,13.20
2022-08-17T02:00:13.000Z,13.21
2022-08-17T02:01:16.000Z,13.22
2022-08-17T02:02:13.000Z,13.20
2022-08-17T02:03:13.000Z,13.20
2022-08-17T02:04:13.000Z,13.24
2022-08-17T02:05:13.000Z,13.25
2022-08-17T02:06:13.000Z,13.28
2022-08-17T02:07:13.000Z,13.24
2022-08-17T02:08:16.000Z,13.29
2022-08-17T02:09:14.000Z,13.25
2022-08-17T02:10:13.000Z,13.21
2022-08-17T02:11:17.000Z,13.25
2022-08-17T02:12:13.000Z,13.19
2022-08-17T02:13:13.000Z,13.29
2022-08-17T02:14:13.000Z,13.21
2022-08-17T02:15:14.000Z,13.27
2022-08-17T02:16:13.000Z,13.24
2022-08-17T02:17:13.000Z,13.13
2022-08-17T02:18:14.000Z,13.26
2022-08-17T02:19:14.000Z,13.20
2022-08-17T02:20:13.000Z,13.19
2022-08-17T02:21:13.000Z,13.30
2022-08-17T02:22:14.000Z,13.31
2022-08-17T02:23:13.000Z,13.20
2022-08-17T02:24:20.000Z,13.29
2022-08-17T02:25:16.000Z,13.33
2022-08-17T02:26:13.000Z,13.29
2022-08-17T02:27:13.000Z,13.32
2022-08-17T02:28:14.000Z,13.29
2022-08-17T02:29:14.000Z,13.33
2022-08-17T02:30:14.000Z,13.30
2022-08-17T02:30:14.000Z,13.30
2022-08-17T02:31:13.000Z,13.32
2022-08-17T02:32:21.000Z,13.35
2022-08-17T02:33:14.000Z,13.25
2022-08-17T02:34:14.000Z,13.18
2022-08-17T02:35:13.000Z,13.28
2022-08-17T02:36:13.000Z,13.36
2022-08-17T02:37:14.000Z,13.23
2022-08-17T02:38:13.000Z,13.39
2022-08-17T02:39:13.000Z,13.36
2022-08-17T02:40:13.000Z,13.36
2022-08-17T02:41:13.000Z,13.23
2022-08-17T02:42:13.000Z,13.27
2022-08-17T02:43:13.000Z,13.38
2022-08-17T02:44:13.000Z,13.32
2022-08-17T02:45:17.000Z,13.31
2022-08-17T02:46:13.000Z,13.30
2022-08-17T02:47:13.000Z,13.29
2022-08-17T02:48:13.000Z,13.40
2022-08-17T02:49:14.000Z,13.33
2022-08-17T02:50:16.000Z,13.24
2022-08-17T02:51:13.000Z,13.22
2022-08-17T02:52:13.000Z,13.20
2022-08-17T02:53:13.000Z,13.23
2022-08-17T02:54:12.000Z,13.12
2022-08-17T02:55:20.000Z,13.16
2022-08-17T02:56:13.000Z,13.25
2022-08-17T02:57:12.000Z,13.29
2022-08-17T02:58:13.000Z,13.27
2022-08-17T02:59:12.000Z,13.15
2022-08-17T03:00:21.000Z,13.15
2022-08-17T03:01:12.000Z,13.29
2022-08-17T03:02:12.000Z,13.33
2022-08-17T03:03:17.000Z,13.30
2022-08-17T03:04:12.000Z,13.29
2022-08-17T03:05:15.000Z,13.27
2022-08-17T03:06:12.000Z,13.24
2022-08-17T03:07:13.000Z,13.20
2022-08-17T03:08:14.000Z,13.35
2022-08-17T03:09:15.000Z,13.36
2022-08-17T03:10:13.000Z,13.34
2022-08-17T03:11:12.000Z,13.33
2022-08-17T03:12:13.000Z,13.26
2022-08-17T03:13:13.000Z,13.25
2022-08-17T03:14:12.000Z,13.26
2022-08-17T03:15:15.000Z,13.28
2022-08-17T03:16:13.000Z,13.24
2022-08-17T03:17:12.000Z,13.27
2022-08-17T03:18:15.000Z,13.22
2022-08-17T03:19:12.000Z,13.23
2022-08-17T03:20:14.000Z,13.21
2022-08-17T03:21:12.000Z,13.11
2022-08-17T03:22:12.000Z,13.16
2022-08-17T03:23:12.000Z,13.09
2022-08-17T03:24:13.000Z,13.18
2022-08-17T03:25:16.000Z,13.14
2022-08-17T03:26:14.000Z,13.14
2022-08-17T03:27:12.000Z,13.02
2022-08-17T03:28:12.000Z,13.12
2022-08-17T03:29:17.000Z,13.15
2022-08-17T03:30:13.000Z,13.17
2022-08-17T03:31:13.000Z,13.26
2022-08-17T03:32:14.000Z,13.17
2022-08-17T03:33:13.000Z,13.15
2022-08-17T03:34:14.000Z,13.24
2022-08-17T03:35:15.000Z,13.12
2022-08-17T03:36:12.000Z,13.17
2022-08-17T03:37:13.000Z,13.13
2022-08-17T03:38:13.000Z,13.29
2022-08-17T03:39:12.000Z,13.21
2022-08-17T03:40:13.000Z,13.20
2022-08-17T03:41:12.000Z,13.32
2022-08-17T03:42:20.000Z,13.37
2022-08-17T03:43:13.000Z,13.29
2022-08-17T03:44:12.000Z,13.29
2022-08-17T03:45:16.000Z,13.29
2022-08-17T03:46:17.000Z,13.30
2022-08-17T03:47:18.000Z,13.18
2022-08-17T03:48:18.000Z,13.30
2022-08-17T03:49:17.000Z,13.24
2022-08-17T03:50:18.000Z,13.19
2022-08-17T03:51:22.000Z,13.12
2022-08-17T03:52:17.000Z,13.29
2022-08-17T03:53:17.000Z,13.21
2022-08-17T03:54:18.000Z,13.14
2022-08-17T03:55:18.000Z,13.23
2022-08-17T03:56:28.000Z,13.22
2022-08-17T03:57:12.000Z,13.28
2022-08-17T03:58:12.000Z,13.20
2022-08-17T03:59:16.000Z,13.24
2022-08-17T04:00:13.000Z,13.25
2022-08-17T04:01:13.000Z,13.27
2022-08-17T04:02:19.000Z,13.27
2022-08-17T04:03:13.000Z,13.30
2022-08-17T04:04:12.000Z,13.23
2022-08-17T04:05:13.000Z,13.26
2022-08-17T04:06:13.000Z,13.21
2022-08-17T04:07:12.000Z,13.12
2022-08-17T04:08:12.000Z,13.06
2022-08-17T04:09:13.000Z,13.02
2022-08-17T04:10:12.000Z,13.05
2022-08-17T04:11:12.000Z,13.03
2022-08-17T04:12:15.000Z,13.07
2022-08-17T04:13:12.000Z,13.09
2022-08-17T04:14:12.000Z,13.06
2022-08-17T04:15:13.000Z,13.01
2022-08-17T04:16:12.000Z,12.98
2022-08-17T04:17:13.000Z,12.98
2022-08-17T04:18:16.000Z,13.04
2022-08-17T04:19:12.000Z,13.09
2022-08-17T04:20:16.000Z,13.07
2022-08-17T04:21:12.000Z,13.00
2022-08-17T04:22:12.000Z,13.00
2022-08-17T04:23:16.000Z,13.07
2022-08-17T04:24:12.000Z,13.02
2022-08-17T04:25:15.000Z,13.03
2022-08-17T04:26:14.000Z,12.99
2022-08-17T04:27:13.000Z,13.04
2022-08-17T04:28:14.000Z,13.05
2022-08-17T04:29:13.000Z,12.98
2022-08-17T04:30:14.000Z,13.00
2022-08-17T04:31:13.000Z,13.07
2022-08-17T04:32:13.000Z,13.08
2022-08-17T04:33:16.000Z,12.99
2022-08-17T04:34:13.000Z,12.95
2022-08-17T04:35:19.000Z,13.07
2022-08-17T04:36:14.000Z,13.00
2022-08-17T04:37:13.000Z,13.03
2022-08-17T04:38:21.000Z,13.05
2022-08-17T04:39:13.000Z,13.03
2022-08-17T04:40:20.000Z,13.02
2022-08-17T04:41:18.000Z,12.94
2022-08-17T04:42:16.000Z,13.00
2022-08-17T04:43:17.000Z,12.99
2022-08-17T04:44:13.000Z,12.98
2022-08-17T04:45:13.000Z,13.00
2022-08-17T04:46:16.000Z,12.95
2022-08-17T04:47:13.000Z,12.97
2022-08-17T04:48:13.000Z,13.00
2022-08-17T04:49:13.000Z,12.98
2022-08-17T04:50:13.000Z,12.92
2022-08-17T04:51:22.000Z,12.96
2022-08-17T04:52:13.000Z,13.01
2022-08-17T04:53:13.000Z,13.04
2022-08-17T04:54:16.000Z,13.10
2022-08-17T04:55:14.000Z,13.10
2022-08-17T04:56:15.000Z,13.06
2022-08-17T04:57:12.000Z,13.13
2022-08-17T04:58:12.000Z,13.10
2022-08-17T04:59:17.000Z,13.18
2022-08-17T05:00:13.000Z,13.19
2022-08-17T05:01:13.000Z,13.15
2022-08-17T05:02:12.000Z,13.24
2022-08-17T05:03:12.000Z,13.31
2022-08-17T05:04:18.000Z,13.33
2022-08-17T05:05:18.000Z,13.40
2022-08-17T05:06:12.000Z,13.41
2022-08-17T05:07:12.000Z,13.42
2022-08-17T05:08:12.000Z,13.45
2022-08-17T05:09:12.000Z,13.43
2022-08-17T05:10:12.000Z,13.37
2022-08-17T05:11:12.000Z,13.57
2022-08-17T05:12:13.000Z,13.58
2022-08-17T05:13:23.000Z,13.56
2022-08-17T05:14:12.000Z,13.55
2022-08-17T05:15:14.000Z,13.66
2022-08-17T05:16:12.000Z,13.62
2022-08-17T05:17:12.000Z,13.76
2022-08-17T05:18:14.000Z,13.79
2022-08-17T05:19:12.000Z,13.75
2022-08-17T05:20:12.000Z,13.75
2022-08-17T05:21:13.000Z,13.88
2022-08-17T05:22:12.000Z,14.02
2022-08-17T05:23:15.000Z,13.93
2022-08-17T05:24:12.000Z,13.87
2022-08-17T05:25:12.000Z,13.82
2022-08-17T05:26:15.000Z,13.87
2022-08-17T05:27:12.000Z,14.05
2022-08-17T05:28:14.000Z,13.98
2022-08-17T05:29:12.000Z,13.99
2022-08-17T05:30:13.000Z,14.02
2022-08-17T05:31:13.000Z,13.99
2022-08-17T05:32:13.000Z,14.01
2022-08-17T05:33:18.000Z,13.95
2022-08-17T05:34:12.000Z,13.88
2022-08-17T05:35:13.000Z,13.97
2022-08-17T05:36:13.000Z,14.06
2022-08-17T05:37:12.000Z,14.02
2022-08-17T05:38:13.000Z,14.16
2022-08-17T05:39:13.000Z,14.03
2022-08-17T05:40:12.000Z,14.08
2022-08-17T05:41:12.000Z,14.06
2022-08-17T05:42:17.000Z,14.07
2022-08-17T05:43:19.000Z,14.03
2022-08-17T05:44:13.000Z,14.13
2022-08-17T05:45:18.000Z,14.19
2022-08-17T05:46:21.000Z,14.11
2022-08-17T05:47:12.000Z,14.16
2022-08-17T05:48:13.000Z,14.18
2022-08-17T05:49:15.000Z,14.23
2022-08-17T05:50:21.000Z,14.26
2022-08-17T05:51:46.000Z,14.17
2022-08-17T05:52:28.000Z,14.28
2022-08-17T05:53:22.000Z,14.25
2022-08-17T05:54:22.000Z,14.30
2022-08-17T05:55:35.000Z,14.36
2022-08-17T05:56:38.000Z,14.40
2022-08-17T05:57:31.000Z,14.40
2022-08-17T05:58:23.000Z,14.51
2022-08-17T05:59:24.000Z,14.45
2022-08-17T06:00:19.000Z,14.54
2022-08-17T06:01:40.000Z,14.46
2022-08-17T06:02:25.000Z,14.44
2022-08-17T06:03:37.000Z,14.43
2022-08-17T06:04:29.000Z,14.41
2022-08-17T06:05:43.000Z,14.41
2022-08-17T06:06:33.000Z,14.42
2022-08-17T06:07:33.000Z,14.44
2022-08-17T06:08:23.000Z,14.44
2022-08-17T06:09:23.000Z,14.40
2022-08-17T06:10:28.000Z,14.39
2022-08-17T06:11:23.000Z,14.43
2022-08-17T06:12:32.000Z,14.50
2022-08-17T06:13:33.000Z,14.38
2022-08-17T06:14:23.000Z,14.41
2022-08-17T06:15:36.000Z,14.34
2022-08-17T06:16:24.000Z,14.39
2022-08-17T06:17:17.000Z,14.45
2022-08-17T06:18:13.000Z,14.55
2022-08-17T06:19:22.000Z,14.47
2022-08-17T06:20:14.000Z,14.50
2022-08-17T06:21:16.000Z,14.47
2022-08-17T06:22:17.000Z,14.42
2022-08-17T06:23:37.000Z,14.48
2022-08-17T06:24:23.000Z,14.47
2022-08-17T06:25:20.000Z,14.42
2022-08-17T06:26:18.000Z,14.47
2022-08-17T06:27:31.000Z,14.51
2022-08-17T06:28:23.000Z,14.58
2022-08-17T06:29:35.000Z,14.59
2022-08-17T06:30:18.000Z,14.53
2022-08-17T06:31:19.000Z,14.63
2022-08-17T06:32:13.000Z,14.53
2022-08-17T06:33:22.000Z,14.56
2022-08-17T06:34:13.000Z,14.54
2022-08-17T06:35:16.000Z,14.62
2022-08-17T06:36:33.000Z,14.68
2022-08-17T06:37:44.000Z,14.52
2022-08-17T06:38:26.000Z,14.49
2022-08-17T06:39:32.000Z,14.48
2022-08-17T06:40:23.000Z,14.79
2022-08-17T06:41:23.000Z,14.80
2022-08-17T06:42:25.000Z,14.73
2022-08-17T06:43:23.000Z,14.65
2022-08-17T06:44:28.000Z,14.66
2022-08-17T06:45:18.000Z,14.63
2022-08-17T06:46:36.000Z,14.58
2022-08-17T06:47:27.000Z,14.66
2022-08-17T06:48:23.000Z,14.61
2022-08-17T06:49:19.000Z,14.56
2022-08-17T06:50:26.000Z,14.63
2022-08-17T06:51:20.000Z,14.67
2022-08-17T06:52:25.000Z,14.54
2022-08-17T06:53:34.000Z,14.47
2022-08-17T06:54:29.000Z,14.52
2022-08-17T06:55:22.000Z,14.50
2022-08-17T06:56:25.000Z,14.57
2022-08-17T06:57:20.000Z,14.53
2022-08-17T06:58:16.000Z,14.54
2022-08-17T06:59:17.000Z,14.59
2022-08-17T07:00:15.000Z,14.57
2022-08-17T07:01:20.000Z,14.55
2022-08-17T07:02:18.000Z,14.57
2022-08-17T07:03:44.000Z,14.57
2022-08-17T07:04:17.000Z,14.56
2022-08-17T07:05:14.000Z,14.52
2022-08-17T07:06:21.000Z,14.55
2022-08-17T07:07:18.000Z,14.54
2022-08-17T07:08:42.000Z,14.50
2022-08-17T07:09:21.000Z,14.51
2022-08-17T07:10:12.000Z,14.55
2022-08-17T07:11:17.000Z,14.55
2022-08-17T07:12:18.000Z,14.53
2022-08-17T07:13:23.000Z,14.56
2022-08-17T07:14:22.000Z,14.51
2022-08-17T07:15:19.000Z,14.48
2022-08-17T07:16:23.000Z,14.59
2022-08-17T07:17:14.000Z,14.52
2022-08-17T07:18:12.000Z,14.50
2022-08-17T07:19:16.000Z,14.48
2022-08-17T07:20:16.000Z,14.50
2022-08-17T07:21:23.000Z,14.58
2022-08-17T07:22:22.000Z,14.56
2022-08-17T07:23:23.000Z,14.56
2022-08-17T07:24:32.000Z,14.53
2022-08-17T07:25:15.000Z,14.56
2022-08-17T07:26:12.000Z,14.52
2022-08-17T07:27:22.000Z,14.56
2022-08-17T07:28:20.000Z,14.70
2022-08-17T07:29:16.000Z,14.75
2022-08-17T07:30:27.000Z,14.98
2022-08-17T07:31:16.000Z,14.89
2022-08-17T07:32:16.000Z,14.95
2022-08-17T07:33:19.000Z,14.91
2022-08-17T07:34:13.000Z,15.00
2022-08-17T07:35:23.000Z,15.29
2022-08-17T07:36:23.000Z,15.23
2022-08-17T07:37:18.000Z,15.20
2022-08-17T07:38:28.000Z,15.27
2022-08-17T07:39:25.000Z,15.16
2022-08-17T07:40:20.000Z,15.24
2022-08-17T07:41:13.000Z,15.12
2022-08-17T07:42:12.000Z,15.14
2022-08-17T07:43:18.000Z,15.15
2022-08-17T07:44:14.000Z,15.06
2022-08-17T07:45:29.000Z,15.05
2022-08-17T07:46:23.000Z,15.05
2022-08-17T07:47:20.000Z,15.05
2022-08-17T07:48:22.000Z,15.11
2022-08-17T07:49:35.000Z,15.06
2022-08-17T07:50:26.000Z,15.13
2022-08-17T07:51:19.000Z,15.11
2022-08-17T07:52:23.000Z,15.14
2022-08-17T07:53:19.000Z,15.20
2022-08-17T07:54:22.000Z,15.11
2022-08-17T07:55:25.000Z,15.03
2022-08-17T07:56:24.000Z,15.18
2022-08-17T07:57:29.000Z,15.11
2022-08-17T07:58:18.000Z,15.13
2022-08-17T07:59:32.000Z,15.15
2022-08-17T08:00:16.000Z,15.25
2022-08-17T08:01:13.000Z,15.23
2022-08-17T08:02:23.000Z,15.17
2022-08-17T08:03:21.000Z,15.31
2022-08-17T08:04:27.000Z,15.28
2022-08-17T08:05:22.000Z,15.34
2022-08-17T08:06:19.000Z,15.29
2022-08-17T08:07:25.000Z,15.27
2022-08-17T08:08:22.000Z,15.25
2022-08-17T08:09:31.000Z,15.23
2022-08-17T08:10:22.000Z,15.24
2022-08-17T08:11:28.000Z,15.28
2022-08-17T08:12:22.000Z,15.31
2022-08-17T08:13:22.000Z,15.28
2022-08-17T08:14:30.000Z,15.41
2022-08-17T08:15:19.000Z,15.33
2022-08-17T08:16:30.000Z,15.33
2022-08-17T08:17:22.000Z,15.29
2022-08-17T08:18:34.000Z,15.25
2022-08-17T08:19:14.000Z,15.28
2022-08-17T08:20:12.000Z,15.30
2022-08-17T08:21:22.000Z,15.29
2022-08-17T08:22:22.000Z,15.34
2022-08-17T08:23:23.000Z,15.28
2022-08-17T08:24:22.000Z,15.35
2022-08-17T08:25:30.000Z,15.35
2022-08-17T08:26:22.000Z,15.28
2022-08-17T08:27:28.000Z,15.25
2022-08-17T08:28:22.000Z,15.26
2022-08-17T08:29:32.000Z,15.29
2022-08-17T08:30:20.000Z,15.42
2022-08-17T08:31:44.000Z,15.35
2022-08-17T08:32:31.000Z,15.35
2022-08-17T08:33:29.000Z,15.32
2022-08-17T08:34:23.000Z,15.32
2022-08-17T08:35:28.000Z,15.29
2022-08-17T08:36:36.000Z,15.30
2022-08-17T08:37:29.000Z,15.33
2022-08-17T08:38:33.000Z,15.31
2022-08-17T08:39:20.000Z,15.34
2022-08-17T08:40:30.000Z,15.27
2022-08-17T08:41:41.000Z,15.28
2022-08-17T08:42:23.000Z,15.28
2022-08-17T08:43:25.000Z,15.32
2022-08-17T08:44:27.000Z,15.34
2022-08-17T08:45:21.000Z,15.35
2022-08-17T08:46:27.000Z,15.35
2022-08-17T08:47:26.000Z,15.32
2022-08-17T08:48:23.000Z,15.33
2022-08-17T08:49:23.000Z,15.37
2022-08-17T08:50:35.000Z,15.42
2022-08-17T08:51:23.000Z,15.34
2022-08-17T08:52:33.000Z,15.32
2022-08-17T08:53:36.000Z,15.33
2022-08-17T08:54:26.000Z,15.27
2022-08-17T08:55:23.000Z,15.24
2022-08-17T08:56:33.000Z,15.23
2022-08-17T08:57:23.000Z,15.25
2022-08-17T08:58:20.000Z,15.19
2022-08-17T08:59:28.000Z,15.19
2022-08-17T09:00:20.000Z,15.23
2022-08-17T09:01:23.000Z,15.23
2022-08-17T09:02:25.000Z,15.30
2022-08-17T09:03:27.000Z,15.24
2022-08-17T09:04:22.000Z,15.23
2022-08-17T09:05:32.000Z,15.19
2022-08-17T09:06:33.000Z,15.23
2022-08-17T09:07:22.000Z,15.23
2022-08-17T09:08:22.000Z,15.25
2022-08-17T09:09:32.000Z,15.38
2022-08-17T09:10:29.000Z,15.37
2022-08-17T09:11:24.000Z,15.33
2022-08-17T09:12:22.000Z,15.38
2022-08-17T09:13:35.000Z,15.31
2022-08-17T09:14:21.000Z,15.34
2022-08-17T09:15:23.000Z,15.32
2022-08-17T09:16:23.000Z,15.34
2022-08-17T09:17:17.000Z,15.43
2022-08-17T09:18:19.000Z,15.41
2022-08-17T09:19:21.000Z,15.42
2022-08-17T09:20:20.000Z,15.49
2022-08-17T09:21:22.000Z,15.47
2022-08-17T09:22:32.000Z,15.45
2022-08-17T09:23:24.000Z,15.42
2022-08-17T09:24:21.000Z,15.42
2022-08-17T09:25:19.000Z,15.38
2022-08-17T09:26:22.000Z,15.28
2022-08-17T09:27:18.000Z,15.33
2022-08-17T09:28:18.000Z,15.30
2022-08-17T09:29:14.000Z,15.31
2022-08-17T09:30:13.000Z,15.35
2022-08-17T09:31:25.000Z,15.38
2022-08-17T09:32:20.000Z,15.34
2022-08-17T09:33:17.000Z,15.32
2022-08-17T09:34:21.000Z,15.29
2022-08-17T09:35:21.000Z,15.31
2022-08-17T09:36:22.000Z,15.33
2022-08-17T09:37:22.000Z,15.27
2022-08-17T09:38:35.000Z,15.34
2022-08-17T09:39:22.000Z,15.33
2022-08-17T09:40:22.000Z,15.28
2022-08-17T09:41:31.000Z,15.34
2022-08-17T09:42:22.000Z,15.35
2022-08-17T09:43:26.000Z,15.36
2022-08-17T09:44:24.000Z,15.40
2022-08-17T09:45:22.000Z,15.29
2022-08-17T09:46:23.000Z,15.42
2022-08-17T09:47:32.000Z,15.34
2022-08-17T09:48:18.000Z,15.47
2022-08-17T09:49:23.000Z,15.48
2022-08-17T09:50:22.000Z,15.49
2022-08-17T09:51:26.000Z,15.53
2022-08-17T09:52:22.000Z,15.48
2022-08-17T09:53:12.000Z,15.47
2022-08-17T09:54:20.000Z,15.53
2022-08-17T09:55:12.000Z,15.56
2022-08-17T09:56:22.000Z,15.53
2022-08-17T09:57:22.000Z,15.52
2022-08-17T09:58:35.000Z,15.50
2022-08-17T09:59:35.000Z,15.52
2022-08-17T10:00:24.000Z,15.59
2022-08-17T10:01:22.000Z,15.57
2022-08-17T10:02:35.000Z,15.60
2022-08-17T10:03:27.000Z,15.53
2022-08-17T10:04:30.000Z,15.60
2022-08-17T10:05:24.000Z,15.57
2022-08-17T10:06:20.000Z,15.58
2022-08-17T10:07:22.000Z,15.61
2022-08-17T10:08:34.000Z,15.69
2022-08-17T10:09:34.000Z,15.74
2022-08-17T10:10:41.000Z,15.73
2022-08-17T10:11:22.000Z,15.66
2022-08-17T10:12:35.000Z,15.74
2022-08-17T10:13:35.000Z,15.64
2022-08-17T10:14:21.000Z,15.61
2022-08-17T10:15:22.000Z,15.60
2022-08-17T10:16:24.000Z,15.64
2022-08-17T10:17:23.000Z,15.66
2022-08-17T10:18:22.000Z,16.05
2022-08-17T10:19:38.000Z,16.28
2022-08-17T10:20:17.000Z,16.23
2022-08-17T10:21:20.000Z,16.23
2022-08-17T10:22:25.000Z,16.19
2022-08-17T10:23:25.000Z,16.21
2022-08-17T10:24:25.000Z,16.18
2022-08-17T10:25:18.000Z,16.27
2022-08-17T10:26:21.000Z,16.25
2022-08-17T10:27:19.000Z,16.39
2022-08-17T10:28:19.000Z,16.52
2022-08-17T10:29:20.000Z,16.82
2022-08-17T10:30:23.000Z,16.89
2022-08-17T10:31:57.000Z,17.04
2022-08-17T10:32:47.000Z,17.08
2022-08-17T10:33:47.000Z,16.89
2022-08-17T10:50:22.000Z,16.40
2022-08-17T10:51:22.000Z,16.32
2022-08-17T10:52:37.000Z,16.44
2022-08-17T10:53:58.000Z,16.33
2022-08-17T10:54:58.000Z,16.48
2022-08-17T10:55:55.000Z,16.41
2022-08-17T10:57:38.000Z,16.40
2022-08-17T10:58:22.000Z,16.39
2022-08-17T10:59:22.000Z,16.42
2022-08-17T11:00:35.000Z,16.36
2022-08-17T11:01:12.000Z,16.33
2022-08-17T11:02:32.000Z,16.43
2022-08-17T11:03:18.000Z,16.35
2022-08-17T11:04:37.000Z,16.31
2022-08-17T11:05:53.000Z,16.32
2022-08-17T11:06:58.000Z,16.30
2022-08-17T11:07:48.000Z,16.26
2022-08-17T11:09:30.000Z,16.29
2022-08-17T11:10:35.000Z,16.38
2022-08-17T11:11:36.000Z,16.33
2022-08-17T11:12:22.000Z,16.28
2022-08-17T11:13:22.000Z,16.41
2022-08-17T11:14:32.000Z,16.10
2022-08-17T11:15:33.000Z,15.88
2022-08-17T11:16:58.000Z,15.92
2022-08-17T11:17:58.000Z,15.89
2022-08-17T11:18:53.000Z,15.78
2022-08-17T12:16:15.000Z,15.80
2022-08-17T12:17:37.000Z,15.83
2022-08-17T12:18:58.000Z,15.96
2022-08-17T12:19:52.000Z,15.92
2022-08-17T12:20:37.000Z,15.90
2022-08-17T12:26:51.000Z,15.92
2022-08-17T12:27:22.000Z,16.05
2022-08-17T12:28:22.000Z,16.14
2022-08-17T12:29:15.000Z,16.17
2022-08-17T12:30:17.000Z,16.07
2022-08-17T12:31:35.000Z,15.90
2022-08-17T12:32:17.000Z,15.61
2022-08-17T12:33:13.000Z,15.69
2022-08-17T12:34:17.000Z,15.72
2022-08-17T12:35:38.000Z,15.81
2022-08-17T12:36:58.000Z,15.81
2022-08-17T12:37:58.000Z,15.74
2022-08-17T12:38:44.000Z,15.81
2022-08-17T13:11:28.000Z,16.16
2022-08-17T13:12:24.000Z,16.11
2022-08-17T13:13:20.000Z,16.20
2022-08-17T13:14:17.000Z,16.28
2022-08-17T13:15:54.000Z,16.23
2022-08-17T13:16:54.000Z,16.12
2022-08-17T13:17:54.000Z,15.93
2022-08-17T13:29:35.000Z,16.31
2022-08-17T13:30:21.000Z,16.32
2022-08-17T13:31:22.000Z,16.41
2022-08-17T13:32:25.000Z,16.40
2022-08-17T13:33:22.000Z,16.44
2022-08-17T13:34:29.000Z,16.36
2022-08-17T13:35:23.000Z,16.37
2022-08-17T13:36:25.000Z,16.45
2022-08-17T13:37:27.000Z,16.43
2022-08-17T13:38:29.000Z,16.40
2022-08-17T13:39:19.000Z,16.41
2022-08-17T13:40:30.000Z,16.56
2022-08-17T13:41:23.000Z,16.56
2022-08-17T13:42:22.000Z,16.52
2022-08-17T13:43:32.000Z,16.45
2022-08-17T13:44:23.000Z,16.58
2022-08-17T13:45:23.000Z,16.23
2022-08-17T13:46:23.000Z,16.32
2022-08-17T13:47:16.000Z,16.29
2022-08-17T13:48:31.000Z,16.44
2022-08-17T13:49:13.000Z,16.39
2022-08-17T13:50:19.000Z,15.97
2022-08-17T13:51:21.000Z,16.22
2022-08-17T13:52:32.000Z,16.36
2022-08-17T13:53:22.000Z,16.38
2022-08-17T13:54:25.000Z,16.20
2022-08-17T13:55:19.000Z,16.29
2022-08-17T13:56:28.000Z,16.15
2022-08-17T13:57:21.000Z,16.11
2022-08-17T13:58:19.000Z,16.07
2022-08-17T13:59:27.000Z,15.91
2022-08-17T14:00:32.000Z,15.93
2022-08-17T14:01:23.000Z,16.08
2022-08-17T14:02:15.000Z,15.77
2022-08-17T14:03:13.000Z,15.74
2022-08-17T14:04:19.000Z,15.61
2022-08-17T14:05:13.000Z,15.66
2022-08-17T14:06:13.000Z,15.74
2022-08-17T14:07:28.000Z,15.50
2022-08-17T14:08:15.000Z,15.75
2022-08-17T14:09:14.000Z,15.80
2022-08-17T14:10:16.000Z,15.91
2022-08-17T14:11:14.000Z,16.01
2022-08-17T14:12:18.000Z,16.05
2022-08-17T14:13:13.000Z,16.12
2022-08-17T14:14:14.000Z,16.16
2022-08-17T14:15:16.000Z,16.02
2022-08-17T14:16:13.000Z,16.09
2022-08-17T14:17:13.000Z,15.97
2022-08-17T14:18:13.000Z,15.92
2022-08-17T14:19:13.000Z,16.01
2022-08-17T14:20:15.000Z,15.75
2022-08-17T14:21:13.000Z,15.71
2022-08-17T14:22:21.000Z,15.58
2022-08-17T14:23:13.000Z,15.59
2022-08-17T14:24:30.000Z,15.60
2022-08-17T14:25:15.000Z,15.60
2022-08-17T14:26:13.000Z,15.52
2022-08-17T14:27:17.000Z,15.63
2022-08-17T14:28:13.000Z,15.68
2022-08-17T14:29:13.000Z,15.73
2022-08-17T14:30:13.000Z,15.64
2022-08-17T14:31:13.000Z,15.66
2022-08-17T14:32:18.000Z,15.88
2022-08-17T14:33:13.000Z,15.99
2022-08-17T14:34:13.000Z,15.62
2022-08-17T14:35:14.000Z,15.76
2022-08-17T14:36:13.000Z,15.65
2022-08-17T14:37:13.000Z,15.80
2022-08-17T14:38:13.000Z,16.06
2022-08-17T14:39:14.000Z,15.55
2022-08-17T14:40:14.000Z,15.23
2022-08-17T14:41:14.000Z,15.18
2022-08-17T14:42:14.000Z,15.43
2022-08-17T14:43:14.000Z,15.44
2022-08-17T14:44:12.000Z,15.61
2022-08-17T14:45:12.000Z,15.73
2022-08-17T14:46:12.000Z,15.33
2022-08-17T14:47:17.000Z,15.51
2022-08-17T14:48:17.000Z,15.68
2022-08-17T14:49:18.000Z,15.74
2022-08-17T14:50:19.000Z,15.60
2022-08-17T14:51:19.000Z,15.63